Time;durP1;ratioP1;P1;durP2;ratioP2;P2;SDS_P1;SDS_P2;PMS_P1;PMS_P2;Temp;Humidity;BMP_temperature;BMP_pressure;BME280_temperature;BME280_humidity;BME280_pressure;Samples;Min_cycle;Max_cycle;Signal;HPM_P1;HPM_P2
2022/02/27 00:02:22;;;;;;;12.48;4.30;;;4.40;92.10;;;;;;4990761;28;20034;-77
2022/02/27 00:04:47;;;;;;;15.95;4.85;;;4.40;92.30;;;;;;4990709;28;20042;-78
2022/02/27 00:07:13;;;;;;;12.13;4.07;;;4.30;92.30;;;;;;4991104;28;20552;-78
2022/02/27 00:09:39;;;;;;;8.98;4.05;;;4.20;92.50;;;;;;4990882;28;20041;-78
2022/02/27 00:12:05;;;;;;;12.60;4.53;;;4.30;92.60;;;;;;4991338;28;20027;-78
2022/02/27 00:14:30;;;;;;;13.55;3.97;;;4.40;92.20;;;;;;4990880;28;20038;-77
2022/02/27 00:16:56;;;;;;;11.25;4.00;;;4.30;92.20;;;;;;4973748;28;20042;-77
2022/02/27 00:19:23;;;;;;;12.80;4.15;;;4.30;92.40;;;;;;4990912;28;20042;-78
2022/02/27 00:21:49;;;;;;;16.48;4.88;;;4.30;92.30;;;;;;4990790;28;20084;-79
2022/02/27 00:24:15;;;;;;;15.50;4.63;;;4.30;92.40;;;;;;4994188;28;20446;-77
2022/02/27 00:26:41;;;;;;;8.80;3.75;;;4.20;92.40;;;;;;4994238;28;20121;-78
2022/02/27 00:29:07;;;;;;;11.25;4.13;;;4.10;92.60;;;;;;4994378;28;20480;-79
2022/02/27 00:31:33;;;;;;;13.80;5.15;;;4.10;92.80;;;;;;4994497;28;20097;-78
2022/02/27 00:33:58;;;;;;;12.93;4.18;;;4.00;92.70;;;;;;4994416;28;20033;-79
2022/02/27 00:36:24;;;;;;;12.68;4.68;;;3.90;92.70;;;;;;4994609;28;20050;-78
2022/02/27 00:38:49;;;;;;;17.08;4.75;;;4.00;92.80;;;;;;4977004;28;20484;-76
2022/02/27 00:41:15;;;;;;;12.77;4.30;;;4.00;92.80;;;;;;4994328;28;20022;-77
2022/02/27 00:43:41;;;;;;;12.85;4.78;;;3.90;92.90;;;;;;4993875;28;20464;-79
2022/02/27 00:46:07;;;;;;;13.98;4.43;;;3.80;93.00;;;;;;4993859;28;20042;-78
2022/02/27 00:48:33;;;;;;;11.52;4.20;;;3.80;93.10;;;;;;4977024;28;20088;-78
2022/02/27 00:50:59;;;;;;;14.90;4.78;;;3.80;93.20;;;;;;4994015;28;20129;-80
2022/02/27 00:53:25;;;;;;;15.40;5.10;;;3.90;92.90;;;;;;4993920;28;20124;-80
2022/02/27 00:55:50;;;;;;;12.27;3.95;;;3.90;93.00;;;;;;4993722;28;20431;-79
2022/02/27 00:58:16;;;;;;;11.77;4.57;;;3.80;93.30;;;;;;4993606;28;20046;-78
2022/02/27 01:00:42;;;;;;;11.80;4.97;;;3.70;93.10;;;;;;4993909;28;20026;-78
2022/02/27 01:03:07;;;;;;;10.43;4.60;;;3.70;93.20;;;;;;4994104;28;20440;-79
2022/02/27 01:05:33;;;;;;;12.70;4.75;;;3.60;93.30;;;;;;4993693;28;20037;-79
2022/02/27 01:07:59;;;;;;;12.40;4.38;;;3.60;93.50;;;;;;4993951;28;20026;-78
2022/02/27 01:10:24;;;;;;;11.77;4.65;;;3.50;93.60;;;;;;4976582;28;20121;-77
2022/02/27 01:12:50;;;;;;;15.55;4.32;;;3.60;93.80;;;;;;4976374;28;20015;-79
2022/02/27 01:15:17;;;;;;;13.48;5.20;;;3.50;93.70;;;;;;4976699;28;20073;-77
2022/02/27 01:17:43;;;;;;;18.33;4.97;;;3.50;93.80;;;;;;4993423;28;20030;-78
2022/02/27 01:20:09;;;;;;;9.00;4.32;;;3.50;93.80;;;;;;4993266;28;20057;-77
2022/02/27 01:22:35;;;;;;;13.23;4.28;;;3.60;93.70;;;;;;4993265;28;20030;-79
2022/02/27 01:25:02;;;;;;;12.80;4.80;;;3.50;93.70;;;;;;4993239;28;20062;-78
2022/02/27 01:27:28;;;;;;;16.67;4.47;;;3.50;94.20;;;;;;4994182;28;20323;-78
2022/02/27 01:29:53;;;;;;;13.82;4.25;;;3.40;93.90;;;;;;4993032;28;20275;-79
2022/02/27 01:32:19;;;;;;;12.32;4.97;;;3.30;94.00;;;;;;4993146;28;20113;-77
2022/02/27 01:34:46;;;;;;;13.48;4.65;;;3.30;94.00;;;;;;4990890;28;20125;-77
2022/02/27 01:37:12;;;;;;;12.38;4.63;;;3.30;94.10;;;;;;4992868;28;20064;-77
2022/02/27 01:39:37;;;;;;;12.02;4.70;;;3.40;94.20;;;;;;4992988;28;20523;-77
2022/02/27 01:42:03;;;;;;;9.80;4.35;;;3.30;94.20;;;;;;4993357;28;20345;-77
2022/02/27 01:44:29;;;;;;;12.10;4.60;;;3.30;94.10;;;;;;4991739;28;20039;-78
2022/02/27 01:47:03;;;;;;;12.95;4.57;;;3.30;94.20;;;;;;4992735;28;20029;-77
2022/02/27 01:49:29;;;;;;;18.85;4.78;;;3.20;94.20;;;;;;4992929;28;20042;-78
2022/02/27 01:51:55;;;;;;;12.27;4.35;;;3.20;94.40;;;;;;4992719;28;20038;-77
2022/02/27 01:54:22;;;;;;;17.25;5.30;;;3.20;94.40;;;;;;4975865;28;20091;-77
2022/02/27 01:56:48;;;;;;;17.80;4.75;;;3.20;94.50;;;;;;4992551;28;20491;-78
2022/02/27 01:59:14;;;;;;;15.25;4.95;;;3.30;94.40;;;;;;4992559;28;20452;-79
2022/02/27 02:01:40;;;;;;;14.75;5.43;;;3.20;94.40;;;;;;4992515;28;20034;-77
2022/02/27 02:04:06;;;;;;;10.52;4.70;;;3.20;94.30;;;;;;4992379;28;20066;-76
2022/02/27 02:06:31;;;;;;;11.45;4.75;;;3.30;94.20;;;;;;4975754;28;20050;-76
2022/02/27 02:08:57;;;;;;;19.55;4.90;;;3.30;94.30;;;;;;4975227;28;20034;-78
2022/02/27 02:11:22;;;;;;;9.13;4.80;;;3.40;94.10;;;;;;4992510;28;20528;-77
2022/02/27 02:13:48;;;;;;;15.63;4.72;;;3.60;94.10;;;;;;4992632;28;20420;-77
2022/02/27 02:16:14;;;;;;;13.10;4.55;;;3.70;93.50;;;;;;4992541;28;20058;-78
2022/02/27 02:18:40;;;;;;;15.40;5.00;;;3.50;94.10;;;;;;4992357;28;20026;-78
2022/02/27 02:21:07;;;;;;;14.55;5.15;;;3.50;94.30;;;;;;4991690;28;20109;-77
2022/02/27 02:23:32;;;;;;;17.23;5.53;;;3.60;94.30;;;;;;4991409;28;20030;-78
2022/02/27 02:26:02;;;;;;;16.85;4.68;;;3.50;94.00;;;;;;4992145;28;20065;-79
2022/02/27 02:28:27;;;;;;;17.90;4.72;;;3.50;94.40;;;;;;4991005;28;20065;-79
2022/02/27 02:30:53;;;;;;;15.45;5.55;;;3.50;94.30;;;;;;4991901;28;20034;-78
2022/02/27 02:33:19;;;;;;;14.27;4.38;;;3.50;94.20;;;;;;4992266;28;20571;-79
2022/02/27 02:35:45;;;;;;;13.70;4.72;;;3.40;94.30;;;;;;5007028;28;20069;-78
2022/02/27 02:38:10;;;;;;;13.05;4.13;;;3.50;94.30;;;;;;5031118;28;20064;-78
2022/02/27 02:40:36;;;;;;;13.88;5.30;;;3.40;94.40;;;;;;5031130;28;20037;-77
2022/02/27 02:43:02;;;;;;;15.40;4.60;;;3.50;94.50;;;;;;5031025;28;20069;-78
2022/02/27 02:45:27;;;;;;;13.00;4.65;;;3.50;94.50;;;;;;5031126;28;20132;-78
2022/02/27 02:47:55;;;;;;;12.85;4.70;;;3.40;94.40;;;;;;5031075;28;20037;-78
2022/02/27 02:50:22;;;;;;;;;;;3.30;94.60;;;;;;5031541;28;20029;-79
2022/02/27 02:52:48;;;;;;;15.77;3.95;;;3.30;94.60;;;;;;5031218;28;19912;-78
2022/02/27 02:55:15;;;;;;;14.05;4.65;;;3.40;94.70;;;;;;5031456;28;20026;-77
2022/02/27 02:57:41;;;;;;;20.52;4.93;;;3.40;94.00;;;;;;5030850;28;20135;-78
2022/02/27 03:00:09;;;;;;;17.33;4.68;;;3.40;94.30;;;;;;5031406;28;20033;-78
2022/02/27 03:02:36;;;;;;;13.57;4.70;;;3.40;94.60;;;;;;5030913;28;20421;-78
2022/02/27 03:05:02;;;;;;;16.95;5.65;;;3.30;94.60;;;;;;5030711;28;20064;-77
2022/02/27 03:07:27;;;;;;;18.33;5.47;;;3.30;94.60;;;;;;5013382;28;20030;-78
2022/02/27 03:09:53;;;;;;;18.90;5.40;;;3.30;94.70;;;;;;5030618;28;20176;-78
2022/02/27 03:12:18;;;;;;;12.23;4.70;;;3.20;94.70;;;;;;5031205;28;20030;-77
2022/02/27 03:14:44;;;;;;;8.85;4.22;;;3.20;94.90;;;;;;5030731;28;20037;-77
2022/02/27 03:17:10;;;;;;;15.15;4.53;;;3.20;94.90;;;;;;5030559;28;20026;-77
2022/02/27 03:19:35;;;;;;;11.68;4.78;;;3.00;95.00;;;;;;5030580;28;20109;-78
2022/02/27 03:22:01;;;;;;;15.70;4.85;;;3.00;95.30;;;;;;5030388;28;20463;-78
2022/02/27 03:24:26;;;;;;;12.40;5.05;;;3.10;95.30;;;;;;5030865;28;20037;-78
2022/02/27 03:26:52;;;;;;;10.75;4.75;;;3.10;95.30;;;;;;5012797;28;20452;-77
2022/02/27 03:29:18;;;;;;;14.00;5.55;;;3.20;95.10;;;;;;5030571;28;20467;-77
2022/02/27 03:31:43;;;;;;;15.00;5.28;;;3.40;95.00;;;;;;5042866;28;20022;-79
2022/02/27 03:34:09;;;;;;;17.50;5.10;;;3.40;95.10;;;;;;5030666;28;20036;-79
2022/02/27 03:36:34;;;;;;;13.35;4.97;;;3.30;95.10;;;;;;5030091;28;20073;-78
2022/02/27 03:39:00;;;;;;;14.75;5.15;;;3.20;95.00;;;;;;5030842;28;20100;-78
2022/02/27 03:41:26;;;;;;;14.77;5.50;;;3.20;95.30;;;;;;5030094;28;20041;-78
2022/02/27 03:43:53;;;;;;;18.80;5.40;;;3.00;95.30;;;;;;5030149;28;20534;-78
2022/02/27 03:46:19;;;;;;;14.63;4.45;;;3.00;95.50;;;;;;5030241;28;20042;-78
2022/02/27 03:48:44;;;;;;;17.85;6.10;;;3.00;95.60;;;;;;5030437;28;20035;-79
2022/02/27 03:51:10;;;;;;;13.20;4.53;;;2.90;95.40;;;;;;5033507;28;20452;-76
2022/02/27 03:53:36;;;;;;;13.90;5.20;;;2.90;95.60;;;;;;5030343;28;20030;-79
2022/02/27 03:56:01;;;;;;;16.00;4.60;;;2.90;95.60;;;;;;5030468;28;20034;-77
2022/02/27 03:58:27;;;;;;;12.18;4.70;;;2.80;95.60;;;;;;5032087;28;20343;-78
2022/02/27 04:00:52;;;;;;;13.68;4.65;;;2.80;95.60;;;;;;5034138;28;20021;-77
2022/02/27 04:03:18;;;;;;;13.02;5.13;;;2.70;95.60;;;;;;5034623;28;20029;-77
2022/02/27 04:05:44;;;;;;;14.43;5.13;;;2.70;95.80;;;;;;5034122;28;20036;-77
2022/02/27 04:08:10;;;;;;;14.07;5.00;;;2.70;95.80;;;;;;5033986;28;20033;-77
2022/02/27 04:10:35;;;;;;;11.88;3.95;;;2.60;95.80;;;;;;5016251;28;20025;-77
2022/02/27 04:13:01;;;;;;;14.77;4.93;;;2.70;95.80;;;;;;5033650;28;20041;-77
2022/02/27 04:15:27;;;;;;;12.60;4.22;;;2.70;95.80;;;;;;5034097;28;20387;-77
2022/02/27 04:17:52;;;;;;;13.68;4.45;;;2.60;95.90;;;;;;5016404;28;20041;-78
2022/02/27 04:20:19;;;;;;;16.52;4.80;;;2.60;95.80;;;;;;5033906;28;20455;-78
2022/02/27 04:22:45;;;;;;;14.23;4.20;;;2.60;95.80;;;;;;5033653;28;20531;-78
2022/02/27 04:25:10;;;;;;;10.32;4.72;;;2.60;96.10;;;;;;5033707;28;20140;-78
2022/02/27 04:27:36;;;;;;;13.82;4.60;;;2.50;95.80;;;;;;5033590;28;20106;-78
2022/02/27 04:30:03;;;;;;;13.40;4.78;;;2.60;96.20;;;;;;5034182;28;20020;-78
2022/02/27 04:32:28;;;;;;;12.05;4.28;;;2.60;96.30;;;;;;5033564;28;20420;-77
2022/02/27 04:34:54;;;;;;;15.23;5.18;;;2.70;96.30;;;;;;5033450;28;20117;-77
2022/02/27 04:37:19;;;;;;;16.35;5.45;;;2.70;96.20;;;;;;5016028;28;20037;-77
2022/02/27 04:39:45;;;;;;;15.30;4.30;;;2.90;96.10;;;;;;5016116;28;20127;-77
2022/02/27 04:42:11;;;;;;;14.35;5.25;;;2.80;95.90;;;;;;5034020;28;20109;-77
2022/02/27 04:44:36;;;;;;;10.73;4.60;;;2.70;96.10;;;;;;5033261;28;20049;-77
2022/02/27 04:47:02;;;;;;;16.10;5.13;;;2.70;96.20;;;;;;5033249;28;20081;-77
2022/02/27 04:49:28;;;;;;;15.98;5.53;;;2.70;96.10;;;;;;5033386;28;20088;-77
2022/02/27 04:51:54;;;;;;;14.88;5.07;;;2.60;96.10;;;;;;5015940;28;20069;-78
2022/02/27 04:54:19;;;;;;;12.82;4.63;;;2.50;96.20;;;;;;5033632;28;20025;-78
2022/02/27 04:56:45;;;;;;;20.23;5.30;;;2.50;96.20;;;;;;5032920;28;20030;-78
2022/02/27 04:59:11;;;;;;;12.00;4.32;;;2.60;96.30;;;;;;5032983;28;20037;-77
2022/02/27 05:01:38;;;;;;;13.25;4.57;;;2.50;96.30;;;;;;5033113;28;20470;-76
2022/02/27 05:04:04;;;;;;;13.43;4.27;;;2.50;96.30;;;;;;5033123;28;20132;-77
2022/02/27 05:06:29;;;;;;;16.52;5.80;;;2.50;96.50;;;;;;5033409;28;20108;-77
2022/02/27 05:08:55;;;;;;;16.42;6.10;;;2.50;96.60;;;;;;5032840;28;20033;-78
2022/02/27 05:11:20;;;;;;;16.40;5.18;;;2.60;96.60;;;;;;5032806;28;20033;-77
2022/02/27 05:13:46;;;;;;;16.83;5.05;;;2.60;96.70;;;;;;5015327;28;20091;-77
2022/02/27 05:16:11;;;;;;;15.93;5.55;;;2.60;96.70;;;;;;5032815;28;20432;-77
2022/02/27 05:18:37;;;;;;;12.98;5.07;;;2.50;96.80;;;;;;5032565;28;20051;-77
2022/02/27 05:21:05;;;;;;;14.57;5.38;;;2.60;97.00;;;;;;5015635;28;20017;-76
2022/02/27 05:23:31;;;;;;;19.77;5.45;;;2.60;97.10;;;;;;5032585;28;20113;-77
2022/02/27 05:25:58;;;;;;;22.55;5.65;;;2.60;96.80;;;;;;5032500;28;20048;-77
2022/02/27 05:28:25;;;;;;;17.65;5.32;;;2.60;96.80;;;;;;5032571;28;20036;-77
2022/02/27 05:30:52;;;;;;;13.15;5.15;;;2.60;97.00;;;;;;5032382;28;20351;-78
2022/02/27 05:33:18;;;;;;;17.83;5.47;;;2.50;96.70;;;;;;5015287;28;20068;-78
2022/02/27 05:35:43;;;;;;;9.95;4.80;;;2.50;96.90;;;;;;5014627;28;20119;-76
2022/02/27 05:38:09;;;;;;;13.43;5.47;;;2.50;96.80;;;;;;5032228;28;20034;-77
2022/02/27 05:40:34;;;;;;;12.35;5.28;;;2.50;96.70;;;;;;5032646;28;20393;-77
2022/02/27 05:43:00;;;;;;;18.40;5.38;;;2.60;97.00;;;;;;5032444;28;20037;-78
2022/02/27 05:45:25;;;;;;;11.75;5.30;;;2.50;96.70;;;;;;5032824;28;20108;-79
2022/02/27 05:47:51;;;;;;;13.85;4.97;;;2.50;96.70;;;;;;5032331;28;20111;-78
2022/02/27 05:50:17;;;;;;;16.88;4.47;;;2.50;96.90;;;;;;5032558;28;20087;-77
2022/02/27 05:52:42;;;;;;;15.25;5.65;;;2.50;96.90;;;;;;5032237;28;20040;-76
2022/02/27 05:55:09;;;;;;;15.57;5.22;;;2.40;96.70;;;;;;5032106;28;20026;-77
2022/02/27 05:57:34;;;;;;;14.05;4.93;;;2.40;96.90;;;;;;5032056;28;20056;-77
2022/02/27 06:00:00;;;;;;;10.13;4.82;;;2.40;96.90;;;;;;5014947;28;20423;-78
2022/02/27 06:02:25;;;;;;;17.90;4.88;;;2.50;97.10;;;;;;5032331;28;20044;-77
2022/02/27 06:04:51;;;;;;;22.38;6.32;;;2.40;97.00;;;;;;5032132;28;20042;-77
2022/02/27 06:07:17;;;;;;;18.25;5.32;;;2.50;97.30;;;;;;5032101;28;20041;-77
2022/02/27 06:09:42;;;;;;;20.13;5.53;;;2.50;97.40;;;;;;5031957;28;20030;-77
2022/02/27 06:12:08;;;;;;;14.95;5.97;;;2.70;97.60;;;;;;5032659;28;20057;-77
2022/02/27 06:14:34;;;;;;;14.18;5.38;;;2.60;97.40;;;;;;5032184;28;20037;-79
2022/02/27 06:16:59;;;;;;;13.13;5.18;;;2.60;97.20;;;;;;5032181;28;20029;-78
2022/02/27 06:19:25;;;;;;;14.13;5.80;;;2.60;97.40;;;;;;5032033;28;20047;-78
2022/02/27 06:21:50;;;;;;;17.48;5.55;;;2.60;97.30;;;;;;5031159;28;20037;-79
2022/02/27 06:24:16;;;;;;;17.73;6.38;;;2.50;97.50;;;;;;5032080;28;20401;-78
2022/02/27 06:26:41;;;;;;;12.75;5.13;;;2.70;97.70;;;;;;5031750;28;20033;-78
2022/02/27 06:29:07;;;;;;;17.48;6.60;;;2.60;97.40;;;;;;5031862;28;20083;-79
2022/02/27 06:31:32;;;;;;;16.92;6.60;;;2.60;97.40;;;;;;5031636;28;20096;-79
2022/02/27 06:33:58;;;;;;;20.05;5.88;;;2.60;97.30;;;;;;5031626;28;20036;-78
2022/02/27 06:36:24;;;;;;;16.50;5.28;;;2.70;97.20;;;;;;5031974;28;20460;-77
2022/02/27 06:38:49;;;;;;;17.95;4.30;;;2.70;97.20;;;;;;5031579;28;20451;-78
2022/02/27 06:41:16;;;;;;;12.82;4.75;;;2.60;97.10;;;;;;5031216;28;20029;-78
2022/02/27 06:43:43;;;;;;;15.00;5.78;;;2.60;97.10;;;;;;5031367;28;20507;-78
2022/02/27 06:46:08;;;;;;;15.70;6.60;;;2.60;97.30;;;;;;5031505;28;20044;-77
2022/02/27 06:48:34;;;;;;;14.07;5.78;;;2.70;97.70;;;;;;5013769;28;20021;-77
2022/02/27 06:51:00;;;;;;;20.92;6.60;;;2.80;97.70;;;;;;5031779;28;20014;-77
2022/02/27 06:53:26;;;;;;;18.85;5.75;;;2.80;97.40;;;;;;5031146;28;20112;-79
2022/02/27 06:55:51;;;;;;;18.77;5.97;;;2.80;97.70;;;;;;5031912;28;20564;-81
2022/02/27 06:58:18;;;;;;;19.25;6.85;;;2.80;97.80;;;;;;5032012;28;20037;-80
2022/02/27 07:00:45;;;;;;;19.15;6.93;;;2.80;97.80;;;;;;5032216;28;20049;-80
2022/02/27 07:03:11;;;;;;;16.92;6.38;;;2.80;97.70;;;;;;5016461;28;20093;-81
2022/02/27 07:05:36;;;;;;;21.88;6.47;;;2.90;97.60;;;;;;5035330;28;20054;-81
2022/02/27 07:08:02;;;;;;;19.85;6.53;;;2.90;97.70;;;;;;5031310;28;20399;-79
2022/02/27 07:10:28;;;;;;;19.00;6.60;;;2.90;97.90;;;;;;5031334;28;20458;-79
2022/02/27 07:12:53;;;;;;;15.55;6.25;;;3.10;97.90;;;;;;5030949;28;20037;-78
2022/02/27 07:15:19;;;;;;;22.48;6.90;;;3.10;97.90;;;;;;5031507;28;20025;-80
2022/02/27 07:17:45;;;;;;;24.40;6.85;;;3.20;97.80;;;;;;5031796;28;20087;-81
2022/02/27 07:20:11;;;;;;;17.75;6.60;;;3.30;97.70;;;;;;5031210;28;20144;-79
2022/02/27 07:22:37;;;;;;;18.35;7.10;;;3.30;97.60;;;;;;5030891;28;20467;-82
2022/02/27 07:25:07;;;;;;;15.88;6.30;;;3.40;97.50;;;;;;5033557;28;20034;-77
2022/02/27 07:27:33;;;;;;;18.55;7.13;;;3.50;97.30;;;;;;5032080;28;20032;-82
2022/02/27 07:30:00;;;;;;;21.98;6.93;;;3.60;97.20;;;;;;5030968;28;20106;-77
2022/02/27 07:32:26;;;;;;;17.23;7.18;;;3.70;97.10;;;;;;5030066;28;20122;-80
2022/02/27 07:34:51;;;;;;;24.90;7.50;;;3.80;97.00;;;;;;5032150;28;20189;-80
2022/02/27 07:37:17;;;;;;;23.05;8.65;;;3.90;97.00;;;;;;5032714;28;20060;-79
2022/02/27 07:39:42;;;;;;;20.80;7.30;;;3.80;97.10;;;;;;5034515;28;20073;-78
2022/02/27 07:42:08;;;;;;;15.68;6.97;;;3.90;97.20;;;;;;5032217;28;20018;-77
2022/02/27 07:44:34;;;;;;;21.27;7.93;;;3.90;97.20;;;;;;5013143;28;20040;-75
2022/02/27 07:47:00;;;;;;;19.17;6.88;;;3.90;97.20;;;;;;5030428;28;20041;-76
2022/02/27 07:49:26;;;;;;;23.27;7.13;;;4.00;97.20;;;;;;5031252;28;20029;-79
2022/02/27 07:51:52;;;;;;;13.57;6.53;;;4.00;97.10;;;;;;5030954;28;20030;-77
2022/02/27 07:54:18;;;;;;;30.25;9.52;;;4.00;97.20;;;;;;5013781;28;20068;-78
2022/02/27 07:56:44;;;;;;;20.90;8.13;;;4.00;97.20;;;;;;5031805;28;20053;-83
2022/02/27 07:59:10;;;;;;;18.65;7.45;;;4.10;97.30;;;;;;5014744;28;20454;-81
2022/02/27 08:01:35;;;;;;;24.95;8.95;;;4.20;97.30;;;;;;5030741;28;20036;-79
2022/02/27 08:04:01;;;;;;;24.85;7.90;;;4.10;97.10;;;;;;5030430;28;20047;-79
2022/02/27 08:06:26;;;;;;;25.90;7.63;;;4.20;97.30;;;;;;5031990;28;20029;-79
2022/02/27 08:08:53;;;;;;;25.95;7.80;;;4.30;97.20;;;;;;5031106;28;20116;-79
2022/02/27 08:11:19;;;;;;;28.63;8.00;;;4.40;97.20;;;;;;5031088;28;20026;-80
2022/02/27 08:13:44;;;;;;;27.17;7.40;;;4.40;97.10;;;;;;5030499;28;20025;-80
2022/02/27 08:16:10;;;;;;;25.38;8.15;;;4.40;97.00;;;;;;5013245;28;20029;-80
2022/02/27 08:18:37;;;;;;;20.98;7.70;;;4.50;96.90;;;;;;5030623;28;20056;-79
2022/02/27 08:21:06;;;;;;;18.40;7.40;;;4.50;97.10;;;;;;5030977;28;20021;-80
2022/02/27 08:23:32;;;;;;;19.55;7.75;;;4.50;97.10;;;;;;5030450;28;20293;-82
2022/02/27 08:25:59;;;;;;;17.55;7.32;;;4.50;97.10;;;;;;5030366;28;20029;-81
2022/02/27 08:28:25;;;;;;;22.23;7.70;;;4.70;97.20;;;;;;5030386;28;20021;-80
2022/02/27 08:30:51;;;;;;;27.75;8.40;;;4.70;97.10;;;;;;5030958;28;20021;-81
2022/02/27 08:33:18;;;;;;;20.58;7.78;;;4.80;97.10;;;;;;5013594;28;20040;-81
2022/02/27 08:35:43;;;;;;;31.95;7.82;;;4.80;97.20;;;;;;5030383;28;20125;-81
2022/02/27 08:38:09;;;;;;;19.27;8.00;;;5.00;97.20;;;;;;5030424;28;20176;-80
2022/02/27 08:40:34;;;;;;;23.38;7.95;;;5.10;96.90;;;;;;5030611;28;20095;-78
2022/02/27 08:43:01;;;;;;;24.25;7.65;;;5.20;96.90;;;;;;5030363;28;20547;-79
2022/02/27 08:45:27;;;;;;;23.67;7.13;;;5.30;96.90;;;;;;5033646;28;20078;-83
2022/02/27 08:47:53;;;;;;;18.05;7.53;;;5.40;96.90;;;;;;5034077;28;20040;-77
2022/02/27 08:50:20;;;;;;;17.20;7.43;;;5.50;96.80;;;;;;5033547;28;20367;-80
2022/02/27 08:52:46;;;;;;;21.67;7.43;;;5.60;96.70;;;;;;5033768;28;20041;-78
2022/02/27 08:55:15;;;;;;;22.38;7.90;;;5.70;96.60;;;;;;5033722;28;20025;-82
2022/02/27 08:57:41;;;;;;;27.17;7.72;;;5.90;96.40;;;;;;5033851;28;20109;-81
2022/02/27 09:00:09;;;;;;;29.00;9.07;;;6.10;96.30;;;;;;5033909;28;20100;-79
2022/02/27 09:02:36;;;;;;;24.77;7.25;;;6.60;96.30;;;;;;5033414;28;20036;-78
2022/02/27 09:05:01;;;;;;;22.75;7.10;;;7.20;95.80;;;;;;5033084;28;20048;-78
2022/02/27 09:07:27;;;;;;;21.40;7.03;;;8.00;94.90;;;;;;5015731;28;20033;-79
2022/02/27 09:09:53;;;;;;;22.85;7.20;;;9.10;94.00;;;;;;5032960;28;20079;-77
2022/02/27 09:12:18;;;;;;;20.45;7.07;;;9.60;93.00;;;;;;5015894;28;20064;-79
2022/02/27 09:14:45;;;;;;;15.90;6.25;;;10.20;91.30;;;;;;5033316;28;20045;-79
2022/02/27 09:17:12;;;;;;;18.10;6.65;;;11.60;89.60;;;;;;5015462;28;20037;-79
2022/02/27 09:19:38;;;;;;;18.17;5.85;;;12.70;85.70;;;;;;5033141;28;20029;-79
2022/02/27 09:22:04;;;;;;;16.75;6.22;;;13.60;83.60;;;;;;5015300;28;20030;-80
2022/02/27 09:24:30;;;;;;;20.90;6.38;;;14.10;83.30;;;;;;5033449;28;20099;-79
2022/02/27 09:26:56;;;;;;;17.05;6.35;;;15.00;76.00;;;;;;5033101;28;20384;-82
2022/02/27 09:29:22;;;;;;;15.25;6.45;;;15.00;74.10;;;;;;5033336;28;20471;-81
2022/02/27 09:31:48;;;;;;;16.02;6.05;;;15.80;74.00;;;;;;5033246;28;20038;-79
2022/02/27 09:34:13;;;;;;;12.85;6.03;;;16.60;73.50;;;;;;5032898;28;20033;-78
2022/02/27 09:36:39;;;;;;;15.25;5.80;;;17.00;68.00;;;;;;5032672;28;20045;-83
2022/02/27 09:39:06;;;;;;;17.92;5.43;;;17.40;66.70;;;;;;5034232;28;20021;-82
2022/02/27 09:41:32;;;;;;;12.67;5.57;;;18.00;66.90;;;;;;5033331;28;20098;-82
2022/02/27 09:44:03;;;;;;;16.50;5.47;;;18.10;62.20;;;;;;5032983;28;20458;-81
2022/02/27 09:46:30;;;;;;;18.92;5.60;;;18.40;62.00;;;;;;5033242;28;20477;-78
2022/02/27 09:48:56;;;;;;;10.88;5.57;;;18.50;58.80;;;;;;5032784;28;20210;-79
2022/02/27 09:51:23;;;;;;;10.63;5.15;;;20.00;60.80;;;;;;5032862;28;20021;-77
2022/02/27 09:53:49;;;;;;;13.15;5.25;;;21.00;56.60;;;;;;5032466;28;20038;-77
2022/02/27 09:56:14;;;;;;;10.15;4.80;;;19.90;55.40;;;;;;5001689;28;20122;-77
2022/02/27 09:58:41;;;;;;;11.98;5.05;;;19.70;56.50;;;;;;4993601;28;20397;-79
2022/02/27 10:01:07;;;;;;;14.32;5.25;;;19.70;54.50;;;;;;4993331;28;20031;-79
2022/02/27 10:03:34;;;;;;;9.60;5.00;;;20.20;54.80;;;;;;4993138;28;20066;-79
2022/02/27 10:06:08;;;;;;;13.30;4.85;;;19.90;53.80;;;;;;4994304;28;20027;-81
2022/02/27 10:08:42;;;;;;;13.15;5.30;;;20.50;54.50;;;;;;5000394;28;20034;-83
2022/02/27 10:11:11;;;;;;;10.55;4.35;;;20.70;53.80;;;;;;5001081;28;20097;-80
2022/02/27 10:13:42;;;;;;;12.75;6.32;;;21.60;53.20;;;;;;4996195;28;20026;-81
2022/02/27 10:16:12;;;;;;;12.48;5.30;;;21.40;50.20;;;;;;4998641;28;20069;-80
2022/02/27 10:18:39;;;;;;;13.48;5.13;;;21.60;49.60;;;;;;4999689;28;20409;-79
2022/02/27 10:21:39;;;;;;;10.70;4.88;;;21.60;51.80;;;;;;4994904;28;20022;-77
2022/02/27 10:24:06;;;;;;;13.15;5.18;;;22.80;49.50;;;;;;4971288;28;20465;-81
2022/02/27 10:26:33;;;;;;;11.90;4.70;;;22.50;50.20;;;;;;4992445;28;20064;-79
2022/02/27 10:29:16;;;;;;;10.00;4.72;;;22.80;48.90;;;;;;4993069;28;20026;-80
2022/02/27 10:31:46;;;;;;;11.65;5.20;;;23.70;48.10;;;;;;4992610;28;20030;-79
2022/02/27 10:34:14;;;;;;;10.93;4.20;;;23.60;47.00;;;;;;4992333;28;20026;-80
2022/02/27 10:37:07;;;;;;;9.75;4.78;;;23.40;46.70;;;;;;4992752;28;20060;-80
2022/02/27 10:39:41;;;;;;;7.88;4.35;;;22.40;46.00;;;;;;4993659;28;20097;-78
2022/02/27 10:42:12;;;;;;;10.07;4.45;;;21.80;45.80;;;;;;4992444;28;20066;-80
2022/02/27 10:44:44;;;;;;;8.52;3.90;;;21.80;47.00;;;;;;4992103;28;20049;-80
2022/02/27 10:47:12;;;;;;;11.48;3.90;;;21.60;46.90;;;;;;4992741;28;20031;-79
2022/02/27 10:49:38;;;;;;;7.28;4.30;;;22.60;46.50;;;;;;4992378;28;20108;-78
2022/02/27 10:52:18;;;;;;;8.65;4.18;;;23.90;46.90;;;;;;4992367;28;20410;-77
2022/02/27 10:54:47;;;;;;;9.00;4.70;;;23.90;44.80;;;;;;4990973;28;20027;-78
2022/02/27 10:57:33;;;;;;;11.90;4.82;;;23.10;46.20;;;;;;4992838;28;20023;-78
2022/02/27 11:00:15;;;;;;;11.73;5.55;;;23.00;44.50;;;;;;4985455;28;20092;-80
2022/02/27 11:02:42;;;;;;;12.93;4.82;;;21.90;44.80;;;;;;4992120;28;20074;-80
2022/02/27 11:05:10;;;;;;;13.38;5.18;;;22.90;44.80;;;;;;4992026;28;20046;-79
2022/02/27 11:07:38;;;;;;;15.75;8.10;;;23.10;45.40;;;;;;4990617;28;20030;-76
2022/02/27 11:10:06;;;;;;;9.43;4.55;;;22.90;45.00;;;;;;4992356;28;20065;-82
2022/02/27 11:12:32;;;;;;;13.60;4.88;;;22.70;44.60;;;;;;4992320;28;20034;-79
2022/02/27 11:14:59;;;;;;;11.10;4.85;;;22.70;43.60;;;;;;4991783;28;20034;-76
2022/02/27 11:17:25;;;;;;;12.35;4.88;;;22.40;44.40;;;;;;4991586;28;20035;-75
2022/02/27 11:19:50;;;;;;;12.40;4.95;;;23.00;45.00;;;;;;4991688;28;20061;-76
2022/02/27 11:22:18;;;;;;;13.02;4.65;;;23.40;44.00;;;;;;4991508;28;20092;-77
2022/02/27 11:24:45;;;;;;;9.80;5.13;;;22.70;42.90;;;;;;4990986;28;20018;-75
2022/02/27 11:27:14;;;;;;;11.27;4.35;;;22.30;44.10;;;;;;4992243;28;20445;-77
2022/02/27 11:29:41;;;;;;;10.60;5.80;;;22.30;43.90;;;;;;4991440;28;20088;-76
2022/02/27 11:32:07;;;;;;;9.90;4.78;;;21.60;43.10;;;;;;4991332;28;20386;-76
2022/02/27 11:34:40;;;;;;;15.10;5.38;;;22.10;43.40;;;;;;4991429;28;20080;-76
2022/02/27 11:37:06;;;;;;;9.50;4.15;;;22.20;42.50;;;;;;4991348;28;20112;-75
2022/02/27 11:42:49;;;;;;;14.95;6.00;;;22.40;42.20;;;;;;4991466;28;20364;-76
2022/02/27 11:45:20;;;;;;;10.50;4.40;;;21.90;43.20;;;;;;4991288;28;20097;-77
2022/02/27 11:47:50;;;;;;;15.88;4.72;;;21.60;44.40;;;;;;4990989;28;20032;-75
2022/02/27 11:50:39;;;;;;;14.15;4.78;;;22.10;43.60;;;;;;4990461;28;20042;-74
2022/02/27 11:53:25;;;;;;;11.40;4.45;;;21.80;44.30;;;;;;4991562;28;20114;-74
2022/02/27 11:55:54;;;;;;;9.63;2.97;;;21.80;43.20;;;;;;4991047;28;20041;-74
2022/02/27 11:58:28;;;;;;;9.98;3.92;;;21.70;42.00;;;;;;4991278;28;20030;-74
2022/02/27 12:01:01;;;;;;;13.68;3.80;;;21.10;41.30;;;;;;4991172;28;20093;-75
2022/02/27 12:03:29;;;;;;;8.55;3.30;;;20.00;41.80;;;;;;4991733;28;20038;-75
2022/02/27 12:05:59;;;;;;;10.38;3.75;;;19.30;42.40;;;;;;4989887;28;20030;-77
2022/02/27 12:08:53;;;;;;;9.10;3.83;;;18.70;43.00;;;;;;4991039;28;20073;-71
2022/02/27 12:11:29;;;;;;;11.80;2.97;;;18.50;43.70;;;;;;4990887;28;20031;-77
2022/02/27 12:14:00;;;;;;;9.13;3.05;;;17.90;44.40;;;;;;4990103;28;20314;-81
2022/02/27 12:16:52;;;;;;;9.93;3.25;;;17.20;45.40;;;;;;4991192;28;20425;-75
2022/02/27 12:19:24;;;;;;;12.38;3.88;;;17.00;45.70;;;;;;4990376;28;20186;-75
2022/02/27 12:21:52;;;;;;;9.23;3.20;;;17.10;47.00;;;;;;4994927;28;20349;-73
2022/02/27 12:24:33;;;;;;;6.70;2.38;;;16.50;46.00;;;;;;4993812;28;20030;-73
2022/02/27 12:27:01;;;;;;;10.65;3.00;;;16.20;46.40;;;;;;4995180;28;20364;-78
2022/02/27 12:29:28;;;;;;;9.52;2.72;;;16.10;46.90;;;;;;4994349;28;20106;-76
2022/02/27 12:31:55;;;;;;;9.88;3.47;;;15.50;47.80;;;;;;4994227;28;20092;-70
2022/02/27 12:34:22;;;;;;;8.30;3.22;;;15.40;50.30;;;;;;4993869;28;20423;-70
2022/02/27 12:36:50;;;;;;;8.68;2.88;;;15.40;49.20;;;;;;4993817;28;20102;-71
2022/02/27 12:39:16;;;;;;;12.48;3.35;;;15.00;50.40;;;;;;4994496;28;20022;-72
2022/02/27 12:41:51;;;;;;;8.07;3.13;;;15.10;50.60;;;;;;4993916;28;20077;-74
2022/02/27 12:44:23;;;;;;;9.20;3.08;;;14.70;49.90;;;;;;4993716;28;20069;-73
2022/02/27 12:46:49;;;;;;;11.93;4.25;;;14.50;50.50;;;;;;4993935;28;20030;-72
2022/02/27 12:52:00;;;;;;;8.10;3.40;;;14.00;51.50;;;;;;4993755;28;20048;-73